Time;durP1;ratioP1;P1;durP2;ratioP2;P2;SDS_P1;SDS_P2;PMS_P1;PMS_P2;Temp;Humidity;BMP_temperature;BMP_pressure;BME280_temperature;BME280_humidity;BME280_pressure;Samples;Min_cycle;Max_cycle;Signal;HPM_P1;HPM_P2
2022/05/25 06:10:36;;;;;;;;;2.00;2.00;;;;;19.95;49.86;101409.59;5072499;27;45615;-81
2022/05/25 06:13:01;;;;;;;;;1.00;1.00;;;;;20.09;50.53;101404.91;5063033;27;45429;-82
2022/05/25 06:20:54;;;;;;;;;1.33;1.33;;;;;20.90;50.27;101415.13;5061002;27;45816;-80
2022/05/25 06:23:20;;;;;;;;;3.00;1.33;;;;;21.20;49.61;101423.34;5061897;28;47201;-83
2022/05/25 06:25:45;;;;;;;;;1.00;1.00;;;;;21.49;49.82;101424.44;5065601;27;52554;-82
2022/05/25 06:28:10;;;;;;;;;0.67;0.67;;;;;21.76;49.08;101421.09;5056961;28;45466;-82
2022/05/25 06:30:36;;;;;;;;;2.00;2.00;;;;;22.04;48.70;101423.09;5057655;28;47153;-81
2022/05/25 06:33:04;;;;;;;;;1.00;1.00;;;;;22.30;48.33;101423.38;5063880;28;45426;-81
2022/05/25 06:35:29;;;;;;;;;1.00;1.00;;;;;22.56;48.14;101432.78;5063040;28;45661;-80
2022/05/25 06:37:55;;;;;;;;;2.00;2.00;;;;;22.78;47.53;101434.28;5058843;28;47901;-81
2022/05/25 06:40:20;;;;;;;;;1.33;1.33;;;;;22.99;47.22;101444.91;5067438;28;54784;-80
2022/05/25 06:42:45;;;;;;;;;2.33;1.00;;;;;23.20;47.00;101445.66;5056428;27;45424;-80
2022/05/25 06:45:11;;;;;;;;;1.00;1.00;;;;;23.40;47.03;101454.59;5057884;28;47042;-87
2022/05/25 06:47:37;;;;;;;;;2.00;2.00;;;;;23.57;46.77;101457.50;5062906;28;45867;-87
2022/05/25 06:50:04;;;;;;;;;1.00;1.00;;;;;23.73;46.71;101463.09;5066014;27;46131;-83
2022/05/25 06:52:29;;;;;;;;;0.33;0.33;;;;;23.88;46.41;101466.16;5061234;28;45652;-83
2022/05/25 06:54:56;;;;;;;;;1.33;1.33;;;;;24.02;46.33;101474.75;5058875;28;45548;-84
2022/05/25 06:57:22;;;;;;;;;1.00;1.00;;;;;24.13;46.07;101473.69;5065329;27;45451;-82
2022/05/25 06:59:47;;;;;;;;;0.00;0.00;;;;;24.25;45.84;101472.47;5057657;28;46632;-87
2022/05/25 07:02:13;;;;;;;;;0.00;0.00;;;;;24.37;45.69;101467.66;5043526;28;45697;-86
2022/05/25 07:04:38;;;;;;;;;2.33;1.67;;;;;24.47;45.59;101470.25;5038555;28;46205;-86
2022/05/25 07:07:04;;;;;;;;;1.33;1.33;;;;;24.60;45.25;101476.13;5041671;28;45532;-82
2022/05/25 07:09:31;;;;;;;;;1.00;1.00;;;;;24.70;44.94;101480.63;5037969;28;47092;-80
2022/05/25 07:11:57;;;;;;;;;0.00;0.00;;;;;24.77;45.08;101478.94;5039064;28;47549;-81
2022/05/25 07:14:23;;;;;;;;;2.00;2.00;;;;;24.86;44.62;101488.06;5039189;28;47040;-80
2022/05/25 07:16:48;;;;;;;;;3.00;1.00;;;;;24.92;44.41;101484.69;5038439;27;45639;-85
2022/05/25 07:19:13;;;;;;;;;1.67;1.00;;;;;24.99;44.71;101484.91;5039468;28;56642;-81
2022/05/25 07:21:39;;;;;;;;;0.00;0.00;;;;;25.03;44.56;101485.44;5024137;27;46015;-80
2022/05/25 07:24:05;;;;;;;;;2.00;2.00;;;;;25.09;44.47;101484.81;5011319;28;46148;-81
2022/05/25 07:26:33;;;;;;;;;3.00;1.00;;;;;25.10;44.54;101476.47;5027124;28;46163;-81
2022/05/25 07:28:58;;;;;;;;;0.33;0.33;;;;;25.19;44.32;101487.38;5024963;28;46455;-83
2022/05/25 07:31:47;;;;;;;;;1.00;1.00;;;;;25.25;44.24;101495.75;5024890;28;52722;-81
2022/05/25 07:34:22;;;;;;;;;0.00;0.00;;;;;25.32;44.05;101500.53;5026130;28;46913;-82
2022/05/25 07:36:51;;;;;;;;;2.00;2.00;;;;;25.37;44.19;101509.03;5024926;28;45874;-82
2022/05/25 07:39:19;;;;;;;;;1.00;1.00;;;;;25.41;43.90;101501.44;5054138;27;47524;-81
2022/05/25 07:41:50;;;;;;;;;1.67;1.67;;;;;25.43;43.41;101511.13;5029401;28;47343;-85
2022/05/25 07:44:20;;;;;;;;;1.00;1.00;;;;;25.42;43.42;101509.41;5030175;28;45595;-85
2022/05/25 07:46:46;;;;;;;;;2.33;2.33;;;;;25.43;43.49;101500.25;5024833;28;47112;-81
2022/05/25 07:49:11;;;;;;;;;2.00;2.00;;;;;25.47;43.38;101500.78;5025562;28;46673;-82
2022/05/25 07:51:37;;;;;;;;;1.00;1.00;;;;;25.49;43.16;101501.44;5024745;28;46872;-85
2022/05/25 07:54:03;;;;;;;;;1.67;1.00;;;;;25.49;42.97;101509.59;5030550;28;45501;-84
2022/05/25 07:56:34;;;;;;;;;3.67;2.33;;;;;25.49;42.75;101509.59;5025547;28;45567;-83
2022/05/25 07:59:01;;;;;;;;;3.33;2.33;;;;;25.47;42.47;101515.19;5024386;28;46909;-83
2022/05/25 08:07:01;;;;;;;;;2.00;2.00;;;;;25.46;42.06;101507.22;5026281;28;45897;-83
2022/05/25 08:09:29;;;;;;;;;2.33;2.33;;;;;25.47;42.16;101517.06;5024978;28;47114;-84
2022/05/25 08:11:54;;;;;;;;;2.00;2.00;;;;;25.45;42.30;101519.94;5026519;28;46112;-84
2022/05/25 08:14:25;;;;;;;;;1.67;1.00;;;;;25.47;42.32;101520.63;5029079;28;49348;-84
2022/05/25 08:16:50;;;;;;;;;2.33;1.33;;;;;25.46;41.84;101524.38;5029378;28;45638;-84
2022/05/25 08:19:15;;;;;;;;;4.00;2.00;;;;;25.49;42.24;101531.34;5023377;28;46216;-86
2022/05/25 08:21:41;;;;;;;;;3.67;2.00;;;;;25.51;42.31;101532.88;5027395;28;46013;-83
2022/05/25 08:24:06;;;;;;;;;3.00;3.00;;;;;25.53;42.62;101532.72;5028009;28;47221;-83
2022/05/25 08:26:31;;;;;;;;;1.67;1.67;;;;;25.56;42.74;101528.84;5023766;28;46143;-84
2022/05/25 08:28:57;;;;;;;;;3.67;2.00;;;;;25.58;42.86;101533.13;5023558;28;45672;-85
2022/05/25 08:31:22;;;;;;;;;4.67;3.00;;;;;25.60;43.20;101531.09;5024637;28;51286;-86
2022/05/25 08:33:47;;;;;;;;;5.00;2.00;;;;;25.62;43.18;101518.19;5025028;28;46134;-86
2022/05/25 08:36:13;;;;;;;;;2.33;1.33;;;;;25.67;43.14;101520.44;5025321;28;46087;-83
2022/05/25 08:38:38;;;;;;;;;5.00;1.00;;;;;25.70;43.27;101519.25;5026201;28;45478;-83
2022/05/25 08:41:04;;;;;;;;;1.00;1.00;;;;;25.72;43.26;101523.50;5027315;28;54368;-84
2022/05/25 08:43:44;;;;;;;;;1.00;1.00;;;;;25.75;43.22;101515.00;5026248;28;45569;-83
2022/05/25 08:46:14;;;;;;;;;3.67;1.67;;;;;25.78;43.45;101521.97;5024703;28;45705;-84
2022/05/25 08:48:40;;;;;;;;;5.00;2.00;;;;;25.79;44.08;101521.81;5022608;28;47039;-80
2022/05/25 08:51:12;;;;;;;;;1.00;1.00;;;;;25.82;43.92;101517.06;5021394;28;46124;-85
2022/05/25 08:53:39;;;;;;;;;5.33;1.00;;;;;25.83;43.63;101522.31;5028622;28;46593;-84
2022/05/25 08:56:36;;;;;;;;;3.00;2.00;;;;;25.86;43.91;101526.56;5023613;28;45683;-84
2022/05/25 08:59:07;;;;;;;;;1.67;1.67;;;;;25.87;43.96;101520.97;5026310;28;47357;-85
2022/05/25 09:01:56;;;;;;;;;1.00;1.00;;;;;25.90;44.03;101520.66;5025597;28;45609;-84
2022/05/25 09:04:21;;;;;;;;;2.00;2.00;;;;;25.92;43.87;101523.22;5028963;28;46884;-87
2022/05/25 09:07:08;;;;;;;;;2.33;1.00;;;;;25.95;44.01;101530.19;5023983;28;46960;-87
2022/05/25 09:09:39;;;;;;;;;1.00;1.00;;;;;25.94;43.90;101526.59;5024968;28;45604;-89
2022/05/25 09:12:14;;;;;;;;;1.33;1.33;;;;;25.98;43.96;101532.56;5025946;28;47173;-91
2022/05/25 09:15:02;;;;;;;;;1.00;1.00;;;;;26.01;43.99;101533.09;5045633;28;46565;-87
2022/05/25 09:17:36;;;;;;;;;1.00;1.00;;;;;26.04;44.02;101531.91;5046935;28;45997;-87
2022/05/25 09:20:03;;;;;;;;;4.00;3.00;;;;;26.07;42.86;101531.56;5049217;28;46105;-90
2022/05/25 09:22:31;;;;;;;;;1.33;1.00;;;;;26.13;42.05;101533.63;5053478;28;45553;-92
2022/05/25 09:25:00;;;;;;;;;1.33;1.33;;;;;26.18;41.77;101536.72;5050636;28;45411;-86
2022/05/25 09:27:38;;;;;;;;;2.00;2.00;;;;;26.22;41.58;101536.34;5049344;28;45460;-90
2022/05/25 09:30:04;;;;;;;;;2.00;1.00;;;;;26.25;41.54;101547.81;5039477;28;45510;-90
2022/05/25 09:32:50;;;;;;;;;1.00;1.00;;;;;26.29;41.71;101540.97;5042629;28;45719;-90
2022/05/25 09:35:37;;;;;;;;;2.00;1.00;;;;;26.35;40.85;101544.06;5045156;28;45508;-89
2022/05/25 09:38:11;;;;;;;;;1.33;1.33;;;;;26.37;41.00;101545.59;5040111;28;45370;-88
2022/05/25 09:40:44;;;;;;;;;3.00;3.00;;;;;26.37;41.29;101532.00;5022371;28;45659;-90
2022/05/25 09:43:14;;;;;;;;;5.00;2.00;;;;;26.38;39.33;101536.41;5021623;28;47877;-87
2022/05/25 09:45:42;;;;;;;;;3.67;3.67;;;;;26.38;37.80;101541.00;5020317;28;46162;-87
2022/05/25 09:48:18;;;;;;;;;0.50;0.50;;;;;26.35;37.60;101530.47;5022134;28;45609;-82
2022/05/25 09:50:48;;;;;;;;;3.67;2.00;;;;;26.28;38.26;101536.56;5022430;28;47288;-83
2022/05/25 09:53:17;;;;;;;;;2.00;2.00;;;;;26.21;38.57;101527.34;5021691;28;45706;-82
2022/05/25 09:56:01;;;;;;;;;1.00;1.00;;;;;26.18;38.33;101535.84;5020853;28;47006;-83
2022/05/25 09:58:49;;;;;;;;;1.00;1.00;;;;;26.16;39.12;101543.34;5031915;28;45577;-82
2022/05/25 10:01:28;;;;;;;;;1.33;1.00;;;;;26.16;39.15;101548.78;5035553;28;45631;-80
2022/05/25 10:03:54;;;;;;;;;6.00;2.00;;;;;26.15;39.08;101545.19;5043829;28;45442;-84
2022/05/25 10:06:29;;;;;;;;;2.00;2.00;;;;;26.17;39.29;101550.47;5037836;28;45495;-80
2022/05/25 10:09:18;;;;;;;;;2.00;2.00;;;;;26.21;39.54;101540.09;5052926;28;45472;-83
2022/05/25 10:11:55;;;;;;;;;2.00;2.00;;;;;26.22;39.21;101545.38;5048451;28;46196;-82
2022/05/25 10:14:31;;;;;;;;;3.33;2.33;;;;;26.26;39.73;101546.78;5046343;28;45459;-85
2022/05/25 10:17:06;;;;;;;;;2.00;1.67;;;;;26.27;39.39;101555.78;5046761;28;45293;-84
2022/05/25 10:19:34;;;;;;;;;3.00;2.67;;;;;26.29;39.51;101553.75;5046253;28;45682;-81
2022/05/25 10:22:00;;;;;;;;;1.33;1.00;;;;;26.31;39.63;101548.97;5039328;28;46343;-82
2022/05/25 10:24:32;;;;;;;;;3.00;2.00;;;;;26.35;39.53;101536.75;5041073;28;45630;-82
2022/05/25 10:26:59;;;;;;;;;2.33;2.33;;;;;26.40;39.60;101538.97;5036186;28;45585;-86
2022/05/25 10:36:45;;;;;;;;;2.00;2.00;;;;;26.42;39.63;101535.06;5044357;28;45605;-84
2022/05/25 10:37:56;;;;;;;;;2.00;0.00;;;;;26.43;40.07;101541.34;5039487;28;45410;-85
2022/05/25 10:40:23;;;;;;;;;1.00;1.00;;;;;26.43;39.49;101555.81;5040790;28;45912;-84
2022/05/25 10:42:50;;;;;;;;;1.67;1.00;;;;;26.44;39.53;101562.94;5040844;28;46788;-84
2022/05/25 10:45:32;;;;;;;;;2.00;1.00;;;;;26.45;39.42;101555.66;5048683;28;45697;-85
2022/05/25 10:48:07;;;;;;;;;2.33;0.00;;;;;26.46;39.76;101551.91;5047533;28;45513;-85
2022/05/25 10:50:41;;;;;;;;;1.00;1.00;;;;;26.44;39.57;101552.06;5042264;28;45420;-85
2022/05/25 10:54:44;;;;;;;;;1.00;1.00;;;;;26.46;39.78;101564.66;5039185;28;45617;-86
2022/05/25 10:56:47;;;;;;;;;1.00;1.00;;;;;26.44;39.36;101541.19;5036465;28;45705;-87
2022/05/25 10:59:27;;;;;;;;;3.00;2.00;;;;;26.46;39.19;101538.28;5042505;28;46749;-87
2022/05/25 11:02:22;;;;;;;;;2.33;0.00;;;;;26.47;39.21;101556.31;5045516;28;45616;-85
2022/05/25 11:05:14;;;;;;;;;2.00;0.67;;;;;26.47;39.21;101537.25;5043379;28;45588;-85
2022/05/25 11:07:41;;;;;;;;;1.33;1.00;;;;;26.46;39.18;101535.56;5048490;28;45534;-85
2022/05/25 11:10:12;;;;;;;;;2.33;0.67;;;;;26.46;39.55;101540.16;5047853;28;45892;-86
2022/05/25 11:12:50;;;;;;;;;1.00;1.00;;;;;26.44;39.50;101545.75;5045363;28;45518;-86
2022/05/25 11:15:21;;;;;;;;;2.00;2.00;;;;;26.43;39.54;101538.63;5045407;28;46685;-85
2022/05/25 11:18:22;;;;;;;;;1.67;1.67;;;;;26.42;39.25;101545.09;5053649;28;45882;-86
2022/05/25 11:21:10;;;;;;;;;1.00;1.00;;;;;26.41;39.49;101548.84;5045529;28;45782;-87
2022/05/25 11:24:10;;;;;;;;;3.00;1.00;;;;;26.41;39.36;101543.41;5044685;28;45394;-87
2022/05/25 11:26:41;;;;;;;;;1.33;1.00;;;;;26.41;39.76;101543.41;5043137;28;46045;-87
2022/05/25 11:29:14;;;;;;;;;1.00;1.00;;;;;26.42;39.13;101545.09;5043159;28;45773;-86
2022/05/25 11:32:16;;;;;;;;;0.67;0.33;;;;;26.42;37.52;101540.50;5047569;28;45335;-85
2022/05/25 11:35:11;;;;;;;;;0.67;0.67;;;;;26.38;36.63;101550.03;5047290;28;45517;-82
2022/05/25 11:38:17;;;;;;;;;1.67;0.67;;;;;26.34;37.26;101537.78;5045955;28;47216;-83
2022/05/25 11:40:46;;;;;;;;;0.00;0.00;;;;;26.34;36.91;101547.78;5047222;28;45410;-83
2022/05/25 11:43:32;;;;;;;;;1.00;1.00;;;;;26.36;36.72;101548.50;5052497;28;45578;-88
2022/05/25 11:46:25;;;;;;;;;0.33;0.33;;;;;26.33;36.49;101544.25;5047058;28;45512;-91
2022/05/25 11:49:15;;;;;;;;;1.67;1.00;;;;;26.38;36.55;101549.16;5043601;28;46325;-87
2022/05/25 11:51:55;;;;;;;;;0.00;0.00;;;;;26.40;36.05;101547.16;5046892;28;45502;-83
2022/05/25 11:54:39;;;;;;;;;0.00;0.00;;;;;26.39;35.17;101539.97;5037435;28;45648;-81
2022/05/25 11:57:22;;;;;;;;;0.00;0.00;;;;;26.34;35.55;101550.50;5041927;28;45474;-82
2022/05/25 12:00:05;;;;;;;;;0.00;0.00;;;;;26.33;35.67;101548.81;5044856;28;45760;-82
2022/05/25 12:02:59;;;;;;;;;0.00;0.00;;;;;26.33;35.04;101543.38;5047123;28;45637;-82
2022/05/25 12:05:49;;;;;;;;;0.00;0.00;;;;;26.31;34.75;101544.41;5050285;28;45568;-84
2022/05/25 12:08:56;;;;;;;;;0.00;0.00;;;;;26.30;34.40;101550.88;5047458;28;45376;-83
2022/05/25 12:11:44;;;;;;;;;0.00;0.00;;;;;26.29;34.06;101546.41;5046469;28;46176;-85
2022/05/25 12:14:42;;;;;;;;;1.00;1.00;;;;;26.28;33.68;101535.72;5046645;28;45591;-85
2022/05/25 12:17:49;;;;;;;;;0.00;0.00;;;;;26.25;33.75;101538.78;4968074;28;45437;-84
2022/05/25 12:20:28;;;;;;;;;0.00;0.00;;;;;26.21;34.01;101535.53;4965765;28;45644;-91
2022/05/25 12:22:58;;;;;;;;;0.00;0.00;;;;;26.21;34.42;101538.25;4964087;28;46177;-83
2022/05/25 12:25:24;;;;;;;;;1.00;1.00;;;;;26.25;34.08;101547.81;4963463;28;45630;-82
2022/05/25 12:27:57;;;;;;;;;0.00;0.00;;;;;26.28;34.21;101546.63;4967931;28;45456;-83
2022/05/25 12:30:32;;;;;;;;;1.00;0.00;;;;;26.29;33.42;101548.31;4966554;28;45521;-84
2022/05/25 12:33:02;;;;;;;;;0.00;0.00;;;;;26.28;32.83;101543.91;4965107;28;46395;-86
2022/05/25 12:35:31;;;;;;;;;0.00;0.00;;;;;26.27;33.24;101556.63;4967370;28;45505;-83
2022/05/25 12:37:58;;;;;;;;;0.00;0.00;;;;;26.26;32.79;101552.22;4966914;28;45449;-86
2022/05/25 12:40:26;;;;;;;;;0.00;0.00;;;;;26.29;33.42;101557.31;4965420;28;45624;-87
2022/05/25 12:42:53;;;;;;;;;0.00;0.00;;;;;26.31;33.56;101555.28;4966650;28;46256;-88
2022/05/25 12:48:31;;;;;;;;;0.00;0.00;;;;;26.42;34.33;101553.25;4975334;28;45492;-88
2022/05/25 12:51:43;;;;;;;;;0.00;0.00;;;;;26.47;34.63;101555.47;4987118;28;45511;-92
2022/05/25 12:54:19;;;;;;;;;0.00;0.00;;;;;26.51;34.10;101548.66;5016272;28;46162;-83
2022/05/25 12:56:46;;;;;;;;;0.00;0.00;;;;;26.54;34.53;101554.63;5050187;28;45497;-83
2022/05/25 12:59:23;;;;;;;;;0.00;0.00;;;;;26.58;34.85;101550.53;5043602;28;45537;-87
2022/05/25 13:02:29;;;;;;;;;1.00;1.00;;;;;26.66;35.48;101555.16;5046581;28;45449;-81
2022/05/25 13:04:59;;;;;;;;;0.00;0.00;;;;;26.76;35.17;101548.69;5025162;28;46347;-84
2022/05/25 13:07:39;;;;;;;;;1.00;1.00;;;;;26.82;35.11;101548.81;5029126;28;45494;-81
2022/05/25 13:10:34;;;;;;;;;0.00;0.00;;;;;26.87;35.44;101556.50;5029072;28;46472;-82
2022/05/25 13:13:20;;;;;;;;;0.00;0.00;;;;;26.89;35.33;101554.44;5015411;28;45522;-80
2022/05/25 13:15:46;;;;;;;;;0.00;0.00;;;;;26.92;35.43;101558.69;5023514;28;46544;-82
2022/05/25 13:18:53;;;;;;;;;0.33;0.33;;;;;26.93;34.97;101549.50;5025826;28;45448;-83
2022/05/25 13:22:02;;;;;;;;;0.00;0.00;;;;;26.94;35.34;101543.06;4967434;28;45663;-82
2022/05/25 13:24:45;;;;;;;;;0.33;0.00;;;;;26.94;35.20;101552.06;4982237;28;45906;-82
2022/05/25 13:27:14;;;;;;;;;0.00;0.00;;;;;26.92;35.57;101545.06;4981300;28;45558;-78
2022/05/25 13:29:42;;;;;;;;;1.67;1.00;;;;;26.90;35.21;101553.44;4979351;28;54410;-87
2022/05/25 13:32:33;;;;;;;;;0.00;0.00;;;;;26.88;35.68;101552.75;4979692;28;45846;-88
2022/05/25 13:35:20;;;;;;;;;2.00;2.00;;;;;26.87;35.89;101556.50;4983719;28;45773;-87
2022/05/25 13:37:49;;;;;;;;;0.67;0.67;;;;;26.87;35.75;101547.47;4978036;28;46941;-85
2022/05/25 13:40:15;;;;;;;;;0.00;0.00;;;;;26.86;36.14;101559.38;4980983;28;45693;-85
2022/05/25 13:42:45;;;;;;;;;0.00;0.00;;;;;26.86;36.23;101545.75;4986241;28;45479;-90
2022/05/25 13:45:20;;;;;;;;;2.00;1.00;;;;;26.90;35.52;101555.28;4983062;28;46117;-88
2022/05/25 13:47:59;;;;;;;;;0.00;0.00;;;;;26.91;36.05;101555.13;4981133;28;45471;-92
2022/05/25 13:50:33;;;;;;;;;0.00;0.00;;;;;26.92;35.96;101558.69;4986490;28;45481;-92
2022/05/25 13:52:59;;;;;;;;;0.00;0.00;;;;;26.93;35.76;101558.56;4986790;28;45672;-88
2022/05/25 13:55:27;;;;;;;;;0.00;0.00;;;;;26.94;35.83;101554.78;5002354;28;45487;-84
2022/05/25 13:57:59;;;;;;;;;1.00;0.67;;;;;26.92;36.00;101558.69;5008516;28;46708;-80
2022/05/25 14:00:28;;;;;;;;;0.00;0.00;;;;;26.90;35.74;101549.84;5024682;28;45618;-82
2022/05/25 14:02:56;;;;;;;;;1.00;1.00;;;;;26.84;36.43;101556.81;5041613;28;45487;-82
2022/05/25 14:05:25;;;;;;;;;0.00;0.00;;;;;26.81;36.51;101557.19;5041583;28;45704;-80
2022/05/25 14:07:51;;;;;;;;;1.00;1.00;;;;;26.79;36.55;101562.81;5038026;28;45498;-79
2022/05/25 14:13:34;;;;;;;;;1.33;0.00;;;;;26.79;36.41;101560.06;5047052;28;47810;-81
2022/05/25 14:16:09;;;;;;;;;0.33;0.33;;;;;26.81;36.78;101562.63;5049264;28;46564;-82
2022/05/25 14:18:40;;;;;;;;;0.33;0.33;;;;;26.83;37.01;101553.28;5044912;28;51962;-81
2022/05/25 14:21:06;;;;;;;;;0.00;0.00;;;;;26.87;36.86;101563.81;5046951;28;45443;-82
2022/05/25 14:23:32;;;;;;;;;0.00;0.00;;;;;26.86;37.22;101554.78;5042035;28;47645;-82
2022/05/25 14:26:05;;;;;;;;;1.00;1.00;;;;;26.89;37.14;101561.78;5040928;28;45513;-79
2022/05/25 14:28:35;;;;;;;;;0.00;0.00;;;;;26.90;36.80;101556.16;5045303;28;47156;-80
2022/05/25 14:31:01;;;;;;;;;0.00;0.00;;;;;26.91;37.50;101551.53;5049345;28;45452;-78
2022/05/25 14:33:27;;;;;;;;;1.00;1.00;;;;;26.95;37.16;101559.25;5048589;28;45504;-78
2022/05/25 14:35:59;;;;;;;;;0.00;0.00;;;;;26.99;37.33;101562.47;5047522;28;45489;-79
2022/05/25 14:38:33;;;;;;;;;1.00;1.00;;;;;27.02;36.97;101564.00;5045457;28;46417;-82
2022/05/25 14:40:58;;;;;;;;;0.33;0.33;;;;;27.07;36.69;101558.88;5051045;28;45592;-79
2022/05/25 14:43:42;;;;;;;;;1.00;1.00;;;;;27.10;36.31;101556.66;5046790;28;45419;-80
2022/05/25 14:46:15;;;;;;;;;0.00;0.00;;;;;27.06;36.45;101559.91;5046627;28;45703;-78
2022/05/25 14:48:46;;;;;;;;;1.33;0.33;;;;;26.99;35.98;101550.72;5038828;28;45762;-80
2022/05/25 14:51:16;;;;;;;;;1.00;1.00;;;;;26.95;36.45;101561.97;5047836;28;45545;-84
2022/05/25 14:53:42;;;;;;;;;0.00;0.00;;;;;26.95;34.54;101561.97;5053848;28;45394;-81
2022/05/25 14:56:21;;;;;;;;;0.00;0.00;;;;;26.96;33.47;101563.66;5047097;28;45462;-82
2022/05/25 14:58:49;;;;;;;;;0.00;0.00;;;;;26.99;33.28;101567.06;5042484;28;47145;-83
2022/05/25 15:01:18;;;;;;;;;1.00;0.00;;;;;27.00;33.01;101572.34;5045011;28;45519;-82
2022/05/25 15:04:00;;;;;;;;;1.67;1.67;;;;;26.98;32.81;101560.78;5045665;28;45702;-82
2022/05/25 15:06:26;;;;;;;;;4.00;3.00;;;;;26.97;32.87;101575.41;5043860;28;45538;-82
2022/05/25 15:08:52;;;;;;;;;4.33;3.00;;;;;26.93;32.18;101560.41;5047833;28;45481;-82
2022/05/25 15:11:18;;;;;;;;;2.33;2.33;;;;;26.89;32.76;101570.78;5051985;28;45824;-89
2022/05/25 15:19:28;;;;;;;;;2.00;2.00;;;;;26.62;33.94;101559.22;5044147;28;45677;-92
2022/05/25 15:21:54;;;;;;;;;1.00;1.00;;;;;26.60;35.30;101569.41;5053286;28;45434;-82
2022/05/25 15:24:23;;;;;;;;;2.00;2.00;;;;;26.59;35.58;101559.56;5046437;28;45418;-81
2022/05/25 15:27:00;;;;;;;;;2.00;2.00;;;;;26.61;35.03;101568.44;5048352;28;45471;-82
2022/05/25 15:29:34;;;;;;;;;1.00;1.00;;;;;26.62;35.84;101561.94;5051429;28;46054;-82
2022/05/25 15:32:03;;;;;;;;;1.00;1.00;;;;;26.60;35.15;101560.41;5045246;28;45473;-82
2022/05/25 15:34:28;;;;;;;;;2.00;2.00;;;;;26.61;34.88;101562.97;5053833;28;45499;-81
2022/05/25 15:36:54;;;;;;;;;2.00;2.00;;;;;26.56;35.22;101568.06;5043922;28;46549;-82
2022/05/25 15:39:19;;;;;;;;;1.00;1.00;;;;;26.51;35.75;101582.19;5048299;28;62141;-81
2022/05/25 15:41:46;;;;;;;;;1.00;1.00;;;;;26.50;35.25;101576.91;5047615;28;45490;-81
2022/05/25 15:44:12;;;;;;;;;1.00;1.00;;;;;26.48;34.58;101579.78;5052151;28;45445;-80
2022/05/25 15:46:42;;;;;;;;;2.00;1.00;;;;;26.47;34.19;101583.53;5041626;28;45958;-81
2022/05/25 15:49:11;;;;;;;;;2.00;2.00;;;;;26.49;34.28;101577.94;5045384;28;46647;-80
2022/05/25 15:51:54;;;;;;;;;0.67;0.67;;;;;26.43;33.96;101577.59;5045980;28;45381;-80
2022/05/25 15:54:25;;;;;;;;;0.33;0.33;;;;;26.40;33.98;101579.81;5042697;28;45550;-79
2022/05/25 15:56:52;;;;;;;;;4.00;2.33;;;;;26.36;34.10;101584.69;5045965;28;45863;-80
2022/05/25 15:59:17;;;;;;;;;2.00;2.00;;;;;26.31;34.79;101579.78;5046238;28;46451;-77
2022/05/25 16:01:45;;;;;;;;;2.33;1.67;;;;;26.28;34.76;101585.53;5045443;28;45360;-77
2022/05/25 16:04:15;;;;;;;;;2.00;2.00;;;;;26.29;35.32;101600.00;5038943;28;45805;-76
2022/05/25 16:06:43;;;;;;;;;4.67;3.00;;;;;26.30;35.16;101599.84;5042538;28;45629;-76
2022/05/25 16:09:16;;;;;;;;;2.00;1.33;;;;;26.28;35.62;101590.97;5039448;28;46076;-76
2022/05/25 16:11:59;;;;;;;;;3.00;3.00;;;;;26.31;35.75;101601.53;5039167;28;45716;-77
2022/05/25 16:14:24;;;;;;;;;0.67;0.67;;;;;26.34;35.69;101597.63;5039414;28;45518;-77
2022/05/25 16:16:50;;;;;;;;;2.33;2.33;;;;;26.38;36.15;101595.44;5037792;28;46788;-77
2022/05/25 16:19:17;;;;;;;;;2.67;1.00;;;;;26.39;36.02;101608.88;5051985;28;46740;-78
2022/05/25 16:21:43;;;;;;;;;2.00;2.00;;;;;26.41;36.15;101612.28;5050526;28;45518;-79
2022/05/25 16:24:10;;;;;;;;;1.00;1.00;;;;;26.43;36.75;101607.53;5048846;28;46634;-80
2022/05/25 16:26:37;;;;;;;;;2.67;2.00;;;;;26.50;36.69;101612.28;5051390;28;45553;-78
2022/05/25 16:29:02;;;;;;;;;2.33;2.00;;;;;26.52;36.67;101615.72;5051698;28;48118;-77
2022/05/25 16:31:30;;;;;;;;;1.67;1.67;;;;;26.56;37.01;101611.59;5053045;28;45826;-78
2022/05/25 16:33:56;;;;;;;;;2.33;2.33;;;;;26.59;36.71;101630.34;5051281;28;46276;-77
